Terminal Aerodrome Forecast
Issued by NWS

Home | Current Version | Previous Version | Text Only | Print | Product List | Glossary Off
Versions: 1 2 3 4 5 6 7 8 9 10 11 12 13 14 15 16 17 18

000
FTUS43 KGRB 212300
TAFCWA
TAF
KCWA 212327Z 2200/2224 28014G22KT P6SM SCT025 SCT060
     FM220600 31010G20KT P6SM BKN025
     FM221300 33015G22KT P6SM SCT030
      AMD LTD TO CLD VIS AND WIND 2203/2211=

USA.gov is the U.S. government's official web portal to all federal, state and local government web resources and services.